createdAt,value
2023-03-01T00:00:47.567Z,56.50
2023-03-01T00:03:08.234Z,59.30
2023-03-01T00:05:20.866Z,58.70
2023-03-01T00:07:33.362Z,60.70
2023-03-01T00:09:46.852Z,58.30
2023-03-01T00:11:59.457Z,55.80
2023-03-01T00:14:12.294Z,51.90
2023-03-01T00:16:29.096Z,52.30
2023-03-01T00:18:42.045Z,50.30
2023-03-01T00:20:56.055Z,49.70
2023-03-01T00:23:08.581Z,44.60
2023-03-01T00:25:21.106Z,43.50
2023-03-01T00:27:33.658Z,44.70
2023-03-01T00:29:46.423Z,44.60
2023-03-01T00:31:59.037Z,45.20
2023-03-01T00:34:11.671Z,49.30
2023-03-01T00:36:30.114Z,46.60
2023-03-01T00:38:45.203Z,45.90
2023-03-01T00:41:05.301Z,45.90
2023-03-01T00:43:17.828Z,42.60
2023-03-01T00:45:32.134Z,42.40
2023-03-01T00:47:44.996Z,42.60
2023-03-01T00:49:57.551Z,43.60
2023-03-01T00:52:10.061Z,44.30
2023-03-01T00:54:22.625Z,46.90
2023-03-01T00:56:35.508Z,44.90
2023-03-01T00:58:48.449Z,48.60
2023-03-01T01:01:01.241Z,47.60
2023-03-01T01:03:13.816Z,47.80
2023-03-01T01:05:26.390Z,49.30
2023-03-01T01:07:39.059Z,48.40
2023-03-01T01:09:51.758Z,47.00
2023-03-01T01:12:04.752Z,48.00
2023-03-01T01:14:18.347Z,47.20
2023-03-01T01:16:31.265Z,46.90
2023-03-01T01:18:44.558Z,46.50
2023-03-01T01:20:57.202Z,45.00
2023-03-01T01:23:09.788Z,44.10
2023-03-01T01:25:22.512Z,46.30
2023-03-01T01:27:35.194Z,46.20
2023-03-01T01:29:47.790Z,46.80
2023-03-01T01:32:00.396Z,50.50
2023-03-01T01:34:19.732Z,48.90
2023-03-01T01:36:33.380Z,49.30
2023-03-01T01:38:46.095Z,46.80
2023-03-01T01:41:00.115Z,46.70
2023-03-01T01:43:26.908Z,46.90
2023-03-01T01:45:39.775Z,47.00
2023-03-01T01:47:55.773Z,46.50
2023-03-01T01:50:17.145Z,46.00
2023-03-01T01:52:36.776Z,48.10
2023-03-01T01:54:57.914Z,47.30
2023-03-01T01:57:15.760Z,47.90
2023-03-01T01:59:29.757Z,48.20
2023-03-01T02:01:42.445Z,47.30
2023-03-01T02:03:55.096Z,47.20
2023-03-01T02:06:16.666Z,49.50
2023-03-01T02:08:31.831Z,47.90
2023-03-01T02:10:46.136Z,49.50
2023-03-01T02:12:58.916Z,53.10
2023-03-01T02:15:11.501Z,51.20
2023-03-01T02:17:24.450Z,49.80
2023-03-01T02:19:48.859Z,46.40
2023-03-01T02:22:19.182Z,46.60
2023-03-01T02:24:55.425Z,46.90
2023-03-01T02:27:08.086Z,46.30
2023-03-01T02:29:21.595Z,47.50
2023-03-01T02:31:43.245Z,48.70
2023-03-01T02:33:56.840Z,47.70
2023-03-01T02:36:14.952Z,47.00
2023-03-01T02:38:28.743Z,48.10
2023-03-01T02:40:41.713Z,57.30
2023-03-01T02:42:58.282Z,61.00
2023-03-01T02:45:11.685Z,56.60
2023-03-01T02:47:24.297Z,53.50
2023-03-01T02:49:38.257Z,49.30
2023-03-01T02:52:36.393Z,48.50
2023-03-01T02:55:02.067Z,45.10
2023-03-01T02:57:15.769Z,46.00
2023-03-01T02:59:32.607Z,46.00
2023-03-01T03:01:46.533Z,44.80
2023-03-01T03:04:01.423Z,44.30
2023-03-01T03:06:14.487Z,45.30
2023-03-01T03:08:27.064Z,44.40
2023-03-01T03:10:41.752Z,46.80
2023-03-01T03:13:03.464Z,47.00
2023-03-01T03:15:16.173Z,49.70
2023-03-01T03:17:28.762Z,50.40
2023-03-01T03:19:41.270Z,52.90
2023-03-01T03:21:53.860Z,54.30
2023-03-01T03:24:06.688Z,53.10
2023-03-01T03:26:19.268Z,52.00
2023-03-01T03:28:33.287Z,49.40
2023-03-01T03:30:46.130Z,47.40
2023-03-01T03:33:00.298Z,46.30
2023-03-01T03:35:12.830Z,46.20
2023-03-01T03:37:43.791Z,44.80
2023-03-01T03:39:56.352Z,46.20
2023-03-01T03:42:08.869Z,47.20
2023-03-01T03:44:21.886Z,46.30
2023-03-01T03:46:34.805Z,46.40
2023-03-01T03:48:47.678Z,49.30
2023-03-01T03:51:00.541Z,49.60
2023-03-01T03:53:13.387Z,49.10
2023-03-01T03:55:30.952Z,49.40
2023-03-01T03:57:43.569Z,48.50
2023-03-01T03:59:56.171Z,46.70
2023-03-01T04:02:09.801Z,47.60
2023-03-01T04:04:22.373Z,47.50
2023-03-01T04:06:35.014Z,49.20
2023-03-01T04:08:47.607Z,47.80
2023-03-01T04:11:25.319Z,46.80
2023-03-01T04:13:37.966Z,47.60
2023-03-01T04:15:55.330Z,45.90
2023-03-01T04:18:15.678Z,50.00
2023-03-01T04:20:30.775Z,52.30
2023-03-01T04:22:43.332Z,55.60
2023-03-01T04:24:56.223Z,58.90
2023-03-01T04:27:08.732Z,57.50
2023-03-01T04:29:21.240Z,56.60
2023-03-01T04:31:35.075Z,53.00
2023-03-01T04:33:49.958Z,52.10
2023-03-01T04:36:06.352Z,48.60
2023-03-01T04:38:20.230Z,48.30
2023-03-01T04:40:33.472Z,49.90
2023-03-01T04:42:45.992Z,49.60
2023-03-01T04:44:58.839Z,49.10
2023-03-01T04:47:12.534Z,49.10
2023-03-01T04:49:25.140Z,52.00
2023-03-01T04:51:37.705Z,61.70
2023-03-01T04:53:50.486Z,55.90
2023-03-01T04:56:03.344Z,72.60
2023-03-01T04:58:15.870Z,78.70
2023-03-01T05:00:28.439Z,88.30
2023-03-01T05:02:41.036Z,96.10
2023-03-01T05:04:53.673Z,94.40
2023-03-01T05:07:06.300Z,78.50
2023-03-01T05:09:18.880Z,92.70
2023-03-01T05:11:34.761Z,94.60
2023-03-01T05:13:47.349Z,59.10
2023-03-01T05:16:01.734Z,60.50
2023-03-01T05:18:14.491Z,76.40
2023-03-01T05:20:29.656Z,74.30
2023-03-01T05:22:42.306Z,76.10
2023-03-01T05:24:55.041Z,70.80
2023-03-01T05:27:07.654Z,68.10
2023-03-01T05:29:25.820Z,72.30
2023-03-01T05:31:39.076Z,82.50
2023-03-01T05:33:51.574Z,83.80
2023-03-01T05:36:04.655Z,72.60
2023-03-01T05:38:17.485Z,65.00
2023-03-01T05:40:30.206Z,88.50
2023-03-01T05:42:51.032Z,86.10
2023-03-01T05:45:03.807Z,91.10
2023-03-01T05:47:16.446Z,89.90
2023-03-01T05:49:29.160Z,89.10
2023-03-01T05:51:42.570Z,66.50
2023-03-01T05:53:55.266Z,67.70
2023-03-01T05:56:08.114Z,64.10
2023-03-01T05:58:21.191Z,66.30
2023-03-01T06:00:34.594Z,68.70
2023-03-01T06:02:47.197Z,75.00
2023-03-01T06:04:59.855Z,76.80
2023-03-01T06:07:12.671Z,75.80
2023-03-01T06:09:26.965Z,73.40
2023-03-01T06:11:39.655Z,76.00
2023-03-01T06:13:52.326Z,78.20
2023-03-01T06:16:07.421Z,75.90
2023-03-01T06:18:20.005Z,67.30
2023-03-01T06:20:32.550Z,63.20
2023-03-01T06:22:45.881Z,68.20
2023-03-01T06:24:58.381Z,70.70
2023-03-01T06:27:10.918Z,80.40
2023-03-01T06:29:23.610Z,77.40
2023-03-01T06:31:36.167Z,100.00
2023-03-01T06:33:48.782Z,81.70
2023-03-01T06:36:01.357Z,81.30
2023-03-01T06:38:15.868Z,78.50
2023-03-01T06:40:29.052Z,77.30
2023-03-01T06:42:49.449Z,75.10
2023-03-01T06:45:02.669Z,72.80
2023-03-01T06:47:15.254Z,61.90
2023-03-01T06:49:27.935Z,67.30
2023-03-01T06:51:40.433Z,71.50
2023-03-01T06:53:52.935Z,62.10
2023-03-01T06:56:05.588Z,62.80
2023-03-01T06:58:18.175Z,58.10
2023-03-01T07:00:31.351Z,54.10
2023-03-01T07:02:43.952Z,56.50
2023-03-01T07:04:56.497Z,57.60
2023-03-01T07:07:09.595Z,56.90
2023-03-01T07:09:23.785Z,56.30
2023-03-01T07:11:36.315Z,57.40
2023-03-01T07:13:48.864Z,66.40
2023-03-01T07:16:01.481Z,66.70
2023-03-01T07:18:14.012Z,54.20
2023-03-01T07:20:26.856Z,55.60
2023-03-01T07:22:42.420Z,51.90
2023-03-01T07:24:54.959Z,53.50
2023-03-01T07:27:07.465Z,50.30
2023-03-01T07:29:20.241Z,49.40
2023-03-01T07:31:33.260Z,46.60
2023-03-01T07:33:46.064Z,47.40
2023-03-01T07:36:00.116Z,48.80
2023-03-01T07:38:12.796Z,49.00
2023-03-01T07:40:25.290Z,49.20
2023-03-01T07:42:38.147Z,67.00
2023-03-01T07:44:50.754Z,58.20
2023-03-01T07:47:04.788Z,50.50
2023-03-01T07:49:17.391Z,50.30
2023-03-01T07:51:29.898Z,49.70
2023-03-01T07:53:42.444Z,48.70
2023-03-01T07:56:06.753Z,47.70
2023-03-01T07:58:19.267Z,46.10
2023-03-01T08:00:32.486Z,46.80
2023-03-01T08:02:45.043Z,44.50
2023-03-01T08:04:57.688Z,43.60
2023-03-01T08:07:10.261Z,42.70
2023-03-01T08:09:23.332Z,42.30
2023-03-01T08:11:36.149Z,40.20
2023-03-01T08:13:51.538Z,43.30
2023-03-01T08:16:15.992Z,44.40
2023-03-01T08:18:28.625Z,42.90
2023-03-01T08:20:41.254Z,38.70
2023-03-01T08:22:53.795Z,38.70
2023-03-01T08:25:07.584Z,36.20
2023-03-01T08:27:20.107Z,33.00
2023-03-01T08:29:33.851Z,32.00
2023-03-01T08:31:46.537Z,35.50
2023-03-01T08:34:01.946Z,35.80
2023-03-01T08:36:14.494Z,36.30
2023-03-01T08:38:26.992Z,34.40
2023-03-01T08:40:39.483Z,34.00
2023-03-01T08:42:52.085Z,32.50
2023-03-01T08:45:05.239Z,32.00
2023-03-01T08:47:17.804Z,31.30
2023-03-01T08:49:30.353Z,32.90
2023-03-01T08:51:44.420Z,30.30
2023-03-01T08:53:57.088Z,28.30
2023-03-01T08:56:10.578Z,28.40
2023-03-01T08:58:23.147Z,30.00
2023-03-01T09:00:35.744Z,28.10
2023-03-01T09:02:48.325Z,28.50
2023-03-01T09:05:00.976Z,26.80
2023-03-01T09:07:13.657Z,25.40
2023-03-01T09:09:26.370Z,26.70
2023-03-01T09:11:38.948Z,24.70
2023-03-01T09:13:51.883Z,24.20
2023-03-01T09:16:06.835Z,22.70
2023-03-01T09:18:19.490Z,21.40
2023-03-01T09:20:32.998Z,21.80
2023-03-01T09:22:45.617Z,20.00
2023-03-01T09:25:00.130Z,17.50
2023-03-01T09:27:13.863Z,15.30
2023-03-01T09:29:26.952Z,16.00
2023-03-01T09:31:39.750Z,16.70
2023-03-01T09:33:54.809Z,16.70
2023-03-01T09:36:11.867Z,15.90
2023-03-01T09:38:25.944Z,16.10
2023-03-01T09:40:47.987Z,16.00
2023-03-01T09:43:08.576Z,21.70
2023-03-01T09:45:34.727Z,18.90
2023-03-01T09:47:47.457Z,22.40
2023-03-01T09:50:14.227Z,27.30
2023-03-01T09:52:37.239Z,17.50
2023-03-01T09:54:56.335Z,17.50
2023-03-01T09:57:16.529Z,17.50
2023-03-01T09:59:38.948Z,18.80
2023-03-01T10:02:10.312Z,18.30
2023-03-01T10:04:40.822Z,17.90
2023-03-01T10:07:22.600Z,17.90
2023-03-01T10:09:38.278Z,19.00
2023-03-01T10:11:54.990Z,18.40
2023-03-01T10:14:25.717Z,17.40
2023-03-01T10:17:34.370Z,17.50
2023-03-01T10:19:48.008Z,16.60
2023-03-01T10:22:22.934Z,17.30
2023-03-01T10:24:37.377Z,16.00
2023-03-01T10:26:57.977Z,16.40
2023-03-01T10:29:15.511Z,17.50
2023-03-01T10:31:38.276Z,17.10
2023-03-01T10:33:55.771Z,16.50
2023-03-01T10:36:08.587Z,15.70
2023-03-01T10:38:22.362Z,15.90
2023-03-01T10:40:36.535Z,16.70
2023-03-01T10:42:50.456Z,16.50
2023-03-01T10:45:31.124Z,15.20
2023-03-01T10:47:43.729Z,14.10
2023-03-01T10:50:02.512Z,14.20
2023-03-01T10:52:25.543Z,14.40
2023-03-01T10:54:38.574Z,13.90
2023-03-01T10:56:54.687Z,14.20
2023-03-01T10:59:22.617Z,14.30
2023-03-01T11:01:36.949Z,14.30
2023-03-01T11:04:09.473Z,14.00
2023-03-01T11:06:23.098Z,13.60
2023-03-01T11:08:44.618Z,14.50
2023-03-01T11:11:26.136Z,13.70
2023-03-01T11:13:48.923Z,13.00
2023-03-01T11:16:05.007Z,12.80
2023-03-01T11:18:31.079Z,13.20
2023-03-01T11:20:53.756Z,12.30
2023-03-01T11:23:15.078Z,13.30
2023-03-01T11:25:33.878Z,14.50
2023-03-01T11:27:47.748Z,12.80
2023-03-01T11:30:05.928Z,12.80
2023-03-01T11:32:22.072Z,12.00
2023-03-01T11:34:44.626Z,12.70
2023-03-01T11:37:02.589Z,13.30
2023-03-01T11:39:39.378Z,12.40
2023-03-01T11:42:18.851Z,12.70
2023-03-01T11:44:37.179Z,13.30
2023-03-01T11:47:26.756Z,12.80
2023-03-01T11:49:57.740Z,12.30
2023-03-01T11:52:31.900Z,12.20
2023-03-01T11:55:17.476Z,12.40
2023-03-01T11:57:49.693Z,12.10
2023-03-01T12:00:17.373Z,12.10
2023-03-01T12:02:38.784Z,12.00
2023-03-01T12:05:19.754Z,12.40
2023-03-01T12:07:45.488Z,11.10
2023-03-01T12:10:22.936Z,11.80
2023-03-01T12:12:54.149Z,11.90
2023-03-01T12:15:20.157Z,12.30
2023-03-01T12:17:58.725Z,12.50
2023-03-01T12:20:23.538Z,12.30
2023-03-01T12:22:45.804Z,10.50
2023-03-01T12:25:21.234Z,10.90
2023-03-01T12:28:18.692Z,10.80
2023-03-01T12:31:08.065Z,10.70
2023-03-01T12:33:40.063Z,10.80
2023-03-01T12:36:16.499Z,11.20
2023-03-01T12:38:53.954Z,10.70
2023-03-01T12:41:22.957Z,10.60
2023-03-01T12:43:59.995Z,9.20
2023-03-01T12:46:30.323Z,7.70
2023-03-01T12:49:04.329Z,7.40
2023-03-01T12:51:20.638Z,7.30
2023-03-01T12:53:37.783Z,6.50
2023-03-01T12:55:52.850Z,5.90
2023-03-01T12:58:26.299Z,6.60
2023-03-01T13:00:52.391Z,6.60
2023-03-01T13:03:24.098Z,6.50
2023-03-01T13:06:08.244Z,7.00
2023-03-01T13:08:29.464Z,7.50
2023-03-01T13:10:52.963Z,7.60
2023-03-01T13:13:11.527Z,8.00
2023-03-01T13:15:28.401Z,7.10
2023-03-01T13:17:45.502Z,7.40
2023-03-01T13:19:59.874Z,8.10
2023-03-01T13:22:32.554Z,8.00
2023-03-01T13:24:45.079Z,7.90
2023-03-01T13:27:06.760Z,8.50
2023-03-01T13:29:27.893Z,9.90
2023-03-01T13:31:40.460Z,10.10
2023-03-01T13:33:57.198Z,9.40
2023-03-01T13:36:11.958Z,9.60
2023-03-01T13:38:58.178Z,8.40
2023-03-01T13:41:10.900Z,7.50
2023-03-01T13:43:36.324Z,7.80
2023-03-01T13:45:49.765Z,7.80
2023-03-01T13:48:16.103Z,8.40
2023-03-01T13:50:33.709Z,8.40
2023-03-01T13:52:51.537Z,7.90
2023-03-01T13:55:08.067Z,8.30
2023-03-01T13:57:25.802Z,7.50
2023-03-01T13:59:48.412Z,7.40
2023-03-01T14:02:01.834Z,8.00
2023-03-01T14:04:32.273Z,7.50
2023-03-01T14:06:44.893Z,8.20
2023-03-01T14:09:21.507Z,8.40
2023-03-01T14:11:40.230Z,8.60
2023-03-01T14:14:19.045Z,8.20
2023-03-01T14:16:50.554Z,8.00
2023-03-01T14:19:31.158Z,8.80
2023-03-01T14:21:46.059Z,9.20
2023-03-01T14:23:59.782Z,9.10
2023-03-01T14:26:13.128Z,9.20
2023-03-01T14:28:38.301Z,9.40
2023-03-01T14:30:53.379Z,9.40
2023-03-01T14:33:18.618Z,9.40
2023-03-01T14:35:34.903Z,10.10
2023-03-01T14:37:47.576Z,9.80
2023-03-01T14:40:02.524Z,9.60
2023-03-01T14:42:16.342Z,10.20
2023-03-01T14:44:30.818Z,9.60
2023-03-01T14:46:46.002Z,8.60
2023-03-01T14:49:11.702Z,8.60
2023-03-01T14:51:24.950Z,10.10
2023-03-01T14:53:49.289Z,10.30
2023-03-01T14:56:03.634Z,10.90
2023-03-01T14:58:20.089Z,10.80
2023-03-01T15:00:35.058Z,11.10
2023-03-01T15:02:53.825Z,10.80
2023-03-01T15:05:08.906Z,11.00
2023-03-01T15:07:49.783Z,11.50
2023-03-01T15:10:04.998Z,11.30
2023-03-01T15:12:36.761Z,11.50
2023-03-01T15:15:02.524Z,11.30
2023-03-01T15:17:29.077Z,11.00
2023-03-01T15:19:41.626Z,11.00
2023-03-01T15:21:54.826Z,11.90
2023-03-01T15:24:26.720Z,11.60
2023-03-01T15:26:43.432Z,11.40
2023-03-01T15:28:59.319Z,11.70
2023-03-01T15:31:23.244Z,11.20
2023-03-01T15:33:37.903Z,11.40
2023-03-01T15:35:54.711Z,11.90
2023-03-01T15:38:26.243Z,11.90
2023-03-01T15:40:50.809Z,11.80
2023-03-01T15:43:05.931Z,12.30
2023-03-01T15:45:21.445Z,12.80
2023-03-01T15:47:36.409Z,12.80
2023-03-01T15:49:55.288Z,12.20
2023-03-01T15:52:22.725Z,13.20
2023-03-01T15:54:35.274Z,12.30
2023-03-01T15:56:48.153Z,12.30
2023-03-01T15:59:03.140Z,12.50
2023-03-01T16:01:20.434Z,12.60
2023-03-01T16:03:33.054Z,12.00
2023-03-01T16:05:45.597Z,12.30
2023-03-01T16:07:58.564Z,12.90
2023-03-01T16:10:11.244Z,13.40
2023-03-01T16:12:25.134Z,12.40
2023-03-01T16:14:38.054Z,12.90
2023-03-01T16:16:50.820Z,12.60
2023-03-01T16:19:03.389Z,12.60
2023-03-01T16:21:24.694Z,13.00
2023-03-01T16:23:37.604Z,13.20
2023-03-01T16:25:50.243Z,13.30
2023-03-01T16:28:05.988Z,13.60
2023-03-01T16:30:21.393Z,13.40
2023-03-01T16:32:33.983Z,13.20
2023-03-01T16:34:50.071Z,13.40
2023-03-01T16:37:02.617Z,13.50
2023-03-01T16:39:15.109Z,13.70
2023-03-01T16:41:28.182Z,13.20
2023-03-01T16:43:42.023Z,13.00
2023-03-01T16:45:54.682Z,13.10
2023-03-01T16:48:07.645Z,12.50
2023-03-01T16:50:20.565Z,13.20
2023-03-01T16:52:34.763Z,13.40
2023-03-01T16:54:48.018Z,14.00
2023-03-01T16:57:00.570Z,13.90
2023-03-01T16:59:13.180Z,14.00
2023-03-01T17:01:26.891Z,13.50
2023-03-01T17:03:41.055Z,14.40
2023-03-01T17:05:53.698Z,14.50
2023-03-01T17:08:06.361Z,13.90
2023-03-01T17:10:18.959Z,14.20
2023-03-01T17:12:32.912Z,14.10
2023-03-01T17:14:45.448Z,14.60
2023-03-01T17:17:00.642Z,17.60
2023-03-01T17:19:18.409Z,17.40
2023-03-01T17:21:31.775Z,18.60
2023-03-01T17:23:46.218Z,18.30
2023-03-01T17:25:59.468Z,18.00
2023-03-01T17:28:13.130Z,19.80
2023-03-01T17:30:25.820Z,19.00
2023-03-01T17:32:38.508Z,22.70
2023-03-01T17:34:51.157Z,23.80
2023-03-01T17:37:03.994Z,24.40
2023-03-01T17:39:17.234Z,27.70
2023-03-01T17:41:30.144Z,29.90
2023-03-01T17:43:43.158Z,37.60
2023-03-01T17:45:56.975Z,28.60
2023-03-01T17:48:10.583Z,27.60
2023-03-01T17:50:23.153Z,31.00
2023-03-01T17:52:35.718Z,31.80
2023-03-01T17:54:48.409Z,31.90
2023-03-01T17:57:01.081Z,34.50
2023-03-01T17:59:13.653Z,33.40
2023-03-01T18:01:26.441Z,34.80
2023-03-01T18:03:40.325Z,35.50
2023-03-01T18:05:52.937Z,35.90
2023-03-01T18:08:05.729Z,35.70
2023-03-01T18:10:20.633Z,40.80
2023-03-01T18:12:33.224Z,37.70
2023-03-01T18:14:45.718Z,32.30
2023-03-01T18:16:58.353Z,32.20
2023-03-01T18:19:12.210Z,28.80
2023-03-01T18:21:25.168Z,28.00
2023-03-01T18:23:38.016Z,33.10
2023-03-01T18:25:51.612Z,32.30
2023-03-01T18:28:04.458Z,30.30
2023-03-01T18:30:17.211Z,27.00
2023-03-01T18:32:29.901Z,24.80
2023-03-01T18:34:42.816Z,25.40
2023-03-01T18:37:08.760Z,24.50
2023-03-01T18:39:23.230Z,26.30
2023-03-01T18:41:36.336Z,27.20
2023-03-01T18:43:48.866Z,26.50
2023-03-01T18:46:01.628Z,26.60
2023-03-01T18:48:15.376Z,25.40
2023-03-01T18:50:28.012Z,26.20
2023-03-01T18:52:40.618Z,28.60
2023-03-01T18:54:53.107Z,27.60
2023-03-01T18:57:05.717Z,29.60
2023-03-01T18:59:18.283Z,34.90
2023-03-01T19:01:34.666Z,33.70
2023-03-01T19:03:49.236Z,34.50
2023-03-01T19:06:02.266Z,35.20
2023-03-01T19:08:14.866Z,38.70
2023-03-01T19:10:28.233Z,42.50
2023-03-01T19:12:40.868Z,48.60
2023-03-01T19:14:53.962Z,48.40
2023-03-01T19:17:06.605Z,47.10
2023-03-01T19:19:19.103Z,99.60
2023-03-01T19:21:32.955Z,144.90
2023-03-01T19:23:45.986Z,148.90
2023-03-01T19:26:03.008Z,129.70
2023-03-01T19:28:15.716Z,107.00
2023-03-01T19:30:28.403Z,99.00
2023-03-01T19:32:40.930Z,59.10
2023-03-01T19:34:53.464Z,58.10
2023-03-01T19:37:06.150Z,65.30
2023-03-01T19:39:18.885Z,67.70
2023-03-01T19:41:31.751Z,63.80
2023-03-01T19:43:46.259Z,65.30
2023-03-01T19:45:59.051Z,63.50
2023-03-01T19:48:12.211Z,65.30
2023-03-01T19:50:24.937Z,62.70
2023-03-01T19:52:37.528Z,61.20
2023-03-01T19:54:51.925Z,61.40
2023-03-01T19:57:06.451Z,61.20
2023-03-01T19:59:24.475Z,60.40
2023-03-01T20:01:37.721Z,62.80
2023-03-01T20:03:50.441Z,60.70
2023-03-01T20:06:14.865Z,59.30
2023-03-01T20:08:30.281Z,59.30
2023-03-01T20:10:43.485Z,56.10
2023-03-01T20:12:56.346Z,54.50
2023-03-01T20:15:09.810Z,54.20
2023-03-01T20:17:23.275Z,63.20
2023-03-01T20:19:36.035Z,65.30
2023-03-01T20:21:48.702Z,62.90
2023-03-01T20:24:02.035Z,61.20
2023-03-01T20:26:19.135Z,61.30
2023-03-01T20:28:32.228Z,67.60
2023-03-01T20:30:45.723Z,63.00
2023-03-01T20:32:58.342Z,78.00
2023-03-01T20:35:11.969Z,83.50
2023-03-01T20:37:24.644Z,84.20
2023-03-01T20:39:37.298Z,85.50
2023-03-01T20:41:49.862Z,85.30
2023-03-01T20:44:04.406Z,88.30
2023-03-01T20:46:17.021Z,86.80
2023-03-01T20:48:29.632Z,89.50
2023-03-01T20:50:42.345Z,99.30
2023-03-01T20:52:54.952Z,96.20
2023-03-01T20:55:08.347Z,96.20
2023-03-01T20:57:20.982Z,102.60
2023-03-01T20:59:34.943Z,87.00
2023-03-01T21:01:47.860Z,82.20
2023-03-01T21:04:00.710Z,80.70
2023-03-01T21:06:13.781Z,85.90
2023-03-01T21:08:26.437Z,82.50
2023-03-01T21:10:38.972Z,84.80
2023-03-01T21:12:51.494Z,83.70
2023-03-01T21:15:04.901Z,83.40
2023-03-01T21:17:17.581Z,83.00
2023-03-01T21:19:30.282Z,77.80
2023-03-01T21:21:42.857Z,80.80
2023-03-01T21:23:55.560Z,83.20
2023-03-01T21:26:09.408Z,85.30
2023-03-01T21:28:22.982Z,83.60
2023-03-01T21:30:35.650Z,87.00
2023-03-01T21:32:48.244Z,87.70
2023-03-01T21:35:00.858Z,87.40
2023-03-01T21:37:13.649Z,92.80
2023-03-01T21:39:28.897Z,87.90
2023-03-01T21:41:41.680Z,79.00
2023-03-01T21:44:00.525Z,81.40
2023-03-01T21:46:17.333Z,86.40
2023-03-01T21:48:30.213Z,82.50
2023-03-01T21:50:42.818Z,87.00
2023-03-01T21:52:55.348Z,89.90
2023-03-01T21:55:09.067Z,90.00
2023-03-01T21:57:21.748Z,88.60
2023-03-01T21:59:34.280Z,88.80
2023-03-01T22:01:47.579Z,96.40
2023-03-01T22:04:01.156Z,101.00
2023-03-01T22:06:26.281Z,102.80
2023-03-01T22:08:38.835Z,100.50
2023-03-01T22:10:52.107Z,97.30
2023-03-01T22:13:04.708Z,103.90
2023-03-01T22:15:17.312Z,104.10
2023-03-01T22:17:29.886Z,97.20
2023-03-01T22:19:42.421Z,97.70
2023-03-01T22:21:54.961Z,95.90
2023-03-01T22:24:08.405Z,91.90
2023-03-01T22:26:27.603Z,93.30
2023-03-01T22:28:40.262Z,87.90
2023-03-01T22:30:52.985Z,89.40
2023-03-01T22:33:05.632Z,87.90
2023-03-01T22:35:18.394Z,86.50
2023-03-01T22:37:31.047Z,87.10
2023-03-01T22:39:43.783Z,87.70
2023-03-01T22:41:56.400Z,91.70
2023-03-01T22:44:09.049Z,94.40
2023-03-01T22:46:22.011Z,92.80
2023-03-01T22:48:34.658Z,89.60
2023-03-01T22:50:48.661Z,94.70
2023-03-01T22:53:01.303Z,92.40
2023-03-01T22:55:13.968Z,93.50
2023-03-01T22:57:26.522Z,104.30
2023-03-01T22:59:39.181Z,101.10
2023-03-01T23:01:53.306Z,96.40
2023-03-01T23:04:06.368Z,96.70
2023-03-01T23:06:20.972Z,92.40
2023-03-01T23:08:33.683Z,93.70
2023-03-01T23:10:46.275Z,94.50
2023-03-01T23:12:58.871Z,93.20
2023-03-01T23:15:12.131Z,95.00
2023-03-01T23:17:25.040Z,92.80
2023-03-01T23:19:37.656Z,92.30
2023-03-01T23:21:50.582Z,94.50
2023-03-01T23:24:03.493Z,96.30
2023-03-01T23:26:17.376Z,95.40
2023-03-01T23:28:30.107Z,97.10
2023-03-01T23:30:45.141Z,105.00
2023-03-01T23:33:00.276Z,103.70
2023-03-01T23:35:12.834Z,99.50
2023-03-01T23:37:30.016Z,100.90
2023-03-01T23:39:42.655Z,99.60
2023-03-01T23:41:55.989Z,98.40
2023-03-01T23:44:12.477Z,97.50
2023-03-01T23:46:28.211Z,95.50
2023-03-01T23:48:42.411Z,94.20
2023-03-01T23:50:55.071Z,96.40
2023-03-01T23:53:14.350Z,100.70
2023-03-01T23:55:27.884Z,103.30
2023-03-01T23:57:40.770Z,105.50
2023-03-01T23:59:53.332Z,105.50
